sensor_id;sensor_type;location;lat;lon;timestamp;pressure;altitude;pressure_sealevel;temperature;humidity
50380;BME280;37474;59.468;18.040;2023-04-02T00:01:36;102077.50;;;-4.42;100.00
50380;BME280;37474;59.468;18.040;2023-04-02T00:04:19;102079.88;;;-4.46;100.00
50380;BME280;37474;59.468;18.040;2023-04-02T00:07:24;102078.81;;;-4.80;100.00
50380;BME280;37474;59.468;18.040;2023-04-02T00:09:56;102087.13;;;-5.08;100.00
50380;BME280;37474;59.468;18.040;2023-04-02T00:12:24;102085.66;;;-5.27;100.00
50380;BME280;37474;59.468;18.040;2023-04-02T00:14:53;102025.78;;;-5.28;100.00
50380;BME280;37474;59.468;18.040;2023-04-02T00:17:23;102090.03;;;-4.97;100.00
50380;BME280;37474;59.468;18.040;2023-04-02T00:19:57;102075.22;;;-4.87;100.00
50380;BME280;37474;59.468;18.040;2023-04-02T00:22:29;102103.78;;;-4.89;100.00
50380;BME280;37474;59.468;18.040;2023-04-02T00:25:12;102104.69;;;-5.13;100.00
50380;BME280;37474;59.468;18.040;2023-04-02T00:27:41;102103.38;;;-5.01;100.00
50380;BME280;37474;59.468;18.040;2023-04-02T00:30:12;102111.66;;;-5.53;100.00
50380;BME280;37474;59.468;18.040;2023-04-02T00:32:41;102118.59;;;-5.48;100.00
50380;BME280;37474;59.468;18.040;2023-04-02T00:35:11;102124.47;;;-5.49;100.00
50380;BME280;37474;59.468;18.040;2023-04-02T00:37:44;102123.94;;;-5.63;100.00
50380;BME280;37474;59.468;18.040;2023-04-02T00:40:18;102119.84;;;-5.37;100.00
50380;BME280;37474;59.468;18.040;2023-04-02T00:42:49;102127.97;;;-5.68;100.00
50380;BME280;37474;59.468;18.040;2023-04-02T00:45:22;102133.72;;;-5.49;100.00
50380;BME280;37474;59.468;18.040;2023-04-02T00:47:59;102141.69;;;-5.84;100.00
50380;BME280;37474;59.468;18.040;2023-04-02T00:50:31;102142.16;;;-5.71;100.00
50380;BME280;37474;59.468;18.040;2023-04-02T00:53:09;102151.25;;;-5.06;100.00
50380;BME280;37474;59.468;18.040;2023-04-02T00:55:40;102149.16;;;-5.18;100.00
50380;BME280;37474;59.468;18.040;2023-04-02T00:58:16;102145.03;;;-5.16;100.00
50380;BME280;37474;59.468;18.040;2023-04-02T01:00:47;102159.78;;;-5.04;100.00
50380;BME280;37474;59.468;18.040;2023-04-02T01:03:31;102164.13;;;-5.24;100.00
50380;BME280;37474;59.468;18.040;2023-04-02T01:06:06;102172.53;;;-5.47;100.00
50380;BME280;37474;59.468;18.040;2023-04-02T01:08:50;102165.00;;;-5.46;100.00
50380;BME280;37474;59.468;18.040;2023-04-02T01:11:33;102170.09;;;-5.67;100.00
50380;BME280;37474;59.468;18.040;2023-04-02T01:14:12;102176.13;;;-5.86;100.00
50380;BME280;37474;59.468;18.040;2023-04-02T01:16:49;102182.47;;;-5.74;100.00
50380;BME280;37474;59.468;18.040;2023-04-02T01:19:43;102179.50;;;-6.07;100.00
50380;BME280;37474;59.468;18.040;2023-04-02T01:22:21;102190.19;;;-5.94;100.00
50380;BME280;37474;59.468;18.040;2023-04-02T01:25:02;102189.44;;;-5.90;100.00
50380;BME280;37474;59.468;18.040;2023-04-02T01:27:37;102197.00;;;-6.12;100.00
50380;BME280;37474;59.468;18.040;2023-04-02T01:30:18;102192.41;;;-5.57;100.00
50380;BME280;37474;59.468;18.040;2023-04-02T01:32:46;102196.09;;;-5.93;100.00
50380;BME280;37474;59.468;18.040;2023-04-02T01:35:20;102208.09;;;-5.86;100.00
50380;BME280;37474;59.468;18.040;2023-04-02T01:37:52;102159.28;;;-6.09;100.00
50380;BME280;37474;59.468;18.040;2023-04-02T01:40:32;102208.75;;;-5.92;100.00
50380;BME280;37474;59.468;18.040;2023-04-02T01:43:10;102208.81;;;-5.68;100.00
50380;BME280;37474;59.468;18.040;2023-04-02T01:45:48;102215.94;;;-5.58;100.00
50380;BME280;37474;59.468;18.040;2023-04-02T01:48:18;102218.38;;;-6.04;100.00
50380;BME280;37474;59.468;18.040;2023-04-02T01:50:52;102222.81;;;-5.76;100.00
50380;BME280;37474;59.468;18.040;2023-04-02T01:53:23;102164.25;;;-5.88;100.00
50380;BME280;37474;59.468;18.040;2023-04-02T01:55:57;102181.47;;;-5.78;100.00
50380;BME280;37474;59.468;18.040;2023-04-02T01:58:27;102232.31;;;-5.70;100.00
50380;BME280;37474;59.468;18.040;2023-04-02T02:01:03;102234.94;;;-5.67;100.00
50380;BME280;37474;59.468;18.040;2023-04-02T02:03:33;102240.88;;;-5.44;100.00
50380;BME280;37474;59.468;18.040;2023-04-02T02:06:08;102246.63;;;-5.48;100.00
50380;BME280;37474;59.468;18.040;2023-04-02T02:08:40;102244.19;;;-5.68;100.00
50380;BME280;37474;59.468;18.040;2023-04-02T02:11:15;102243.31;;;-5.68;100.00
50380;BME280;37474;59.468;18.040;2023-04-02T02:13:45;102248.72;;;-6.02;100.00
50380;BME280;37474;59.468;18.040;2023-04-02T02:16:23;102253.72;;;-6.04;100.00
50380;BME280;37474;59.468;18.040;2023-04-02T02:18:55;102260.56;;;-5.79;100.00
50380;BME280;37474;59.468;18.040;2023-04-02T02:21:33;102254.94;;;-5.94;100.00
50380;BME280;37474;59.468;18.040;2023-04-02T02:24:06;102257.47;;;-5.94;100.00
50380;BME280;37474;59.468;18.040;2023-04-02T02:26:45;102266.81;;;-6.13;100.00
50380;BME280;37474;59.468;18.040;2023-04-02T02:29:17;102267.38;;;-6.20;100.00
50380;BME280;37474;59.468;18.040;2023-04-02T02:31:52;102277.28;;;-6.24;100.00
50380;BME280;37474;59.468;18.040;2023-04-02T02:34:27;102271.19;;;-5.88;100.00
50380;BME280;37474;59.468;18.040;2023-04-02T02:37:01;102286.72;;;-6.20;100.00
50380;BME280;37474;59.468;18.040;2023-04-02T02:39:33;102291.41;;;-6.28;100.00
50380;BME280;37474;59.468;18.040;2023-04-02T02:42:09;102289.84;;;-6.45;100.00
50380;BME280;37474;59.468;18.040;2023-04-02T02:44:42;102274.59;;;-6.48;100.00
50380;BME280;37474;59.468;18.040;2023-04-02T02:47:18;102288.19;;;-6.64;100.00
50380;BME280;37474;59.468;18.040;2023-04-02T02:49:51;102296.88;;;-6.57;100.00
50380;BME280;37474;59.468;18.040;2023-04-02T02:52:30;102264.69;;;-6.63;100.00
50380;BME280;37474;59.468;18.040;2023-04-02T02:55:01;102307.91;;;-6.55;100.00
50380;BME280;37474;59.468;18.040;2023-04-02T02:57:37;102308.97;;;-6.70;100.00
50380;BME280;37474;59.468;18.040;2023-04-02T03:00:08;102313.97;;;-6.89;100.00
50380;BME280;37474;59.468;18.040;2023-04-02T03:02:42;102315.63;;;-6.52;100.00
50380;BME280;37474;59.468;18.040;2023-04-02T03:05:15;102320.09;;;-6.84;100.00
50380;BME280;37474;59.468;18.040;2023-04-02T03:07:49;102323.22;;;-7.07;100.00
50380;BME280;37474;59.468;18.040;2023-04-02T03:10:22;102328.91;;;-7.11;100.00
50380;BME280;37474;59.468;18.040;2023-04-02T03:13:00;102327.56;;;-7.23;100.00
50380;BME280;37474;59.468;18.040;2023-04-02T03:15:33;102336.53;;;-6.92;100.00
50380;BME280;37474;59.468;18.040;2023-04-02T03:18:12;102343.81;;;-6.61;100.00
50380;BME280;37474;59.468;18.040;2023-04-02T03:20:44;102346.38;;;-7.16;100.00
50380;BME280;37474;59.468;18.040;2023-04-02T03:23:19;102352.69;;;-7.06;100.00
50380;BME280;37474;59.468;18.040;2023-04-02T03:25:55;102360.03;;;-7.29;100.00
50380;BME280;37474;59.468;18.040;2023-04-02T03:28:31;102355.84;;;-6.93;100.00
50380;BME280;37474;59.468;18.040;2023-04-02T03:31:05;102286.91;;;-7.66;100.00
50380;BME280;37474;59.468;18.040;2023-04-02T03:33:40;102360.75;;;-6.58;100.00
50380;BME280;37474;59.468;18.040;2023-04-02T03:36:15;102365.16;;;-6.54;100.00
50380;BME280;37474;59.468;18.040;2023-04-02T03:38:52;102368.44;;;-6.75;100.00
50380;BME280;37474;59.468;18.040;2023-04-02T03:41:28;102375.16;;;-6.93;100.00
50380;BME280;37474;59.468;18.040;2023-04-02T03:44:03;102379.22;;;-6.40;100.00
50380;BME280;37474;59.468;18.040;2023-04-02T03:46:37;102382.16;;;-6.12;100.00
50380;BME280;37474;59.468;18.040;2023-04-02T03:49:18;102386.41;;;-5.91;100.00
50380;BME280;37474;59.468;18.040;2023-04-02T03:51:56;102391.91;;;-6.39;100.00
50380;BME280;37474;59.468;18.040;2023-04-02T03:54:28;102387.06;;;-6.53;100.00
50380;BME280;37474;59.468;18.040;2023-04-02T03:56:56;102397.09;;;-6.73;100.00
50380;BME280;37474;59.468;18.040;2023-04-02T03:59:33;102400.94;;;-7.17;100.00
50380;BME280;37474;59.468;18.040;2023-04-02T04:02:14;102403.38;;;-7.36;100.00
50380;BME280;37474;59.468;18.040;2023-04-02T04:04:49;102355.59;;;-7.68;100.00
50380;BME280;37474;59.468;18.040;2023-04-02T04:07:27;102413.97;;;-7.07;100.00
50380;BME280;37474;59.468;18.040;2023-04-02T04:10:00;102413.09;;;-7.26;100.00
50380;BME280;37474;59.468;18.040;2023-04-02T04:12:33;102408.00;;;-7.27;100.00
50380;BME280;37474;59.468;18.040;2023-04-02T04:15:07;102417.56;;;-7.38;100.00
50380;BME280;37474;59.468;18.040;2023-04-02T04:17:47;102423.75;;;-7.65;100.00
50380;BME280;37474;59.468;18.040;2023-04-02T04:20:25;102428.25;;;-7.76;100.00
50380;BME280;37474;59.468;18.040;2023-04-02T04:23:07;102432.25;;;-7.63;100.00
50380;BME280;37474;59.468;18.040;2023-04-02T04:25:38;102392.88;;;-7.95;100.00
50380;BME280;37474;59.468;18.040;2023-04-02T04:28:14;102444.47;;;-7.71;100.00
50380;BME280;37474;59.468;18.040;2023-04-02T04:30:50;102447.44;;;-7.78;100.00
50380;BME280;37474;59.468;18.040;2023-04-02T04:33:23;102454.53;;;-7.87;100.00
50380;BME280;37474;59.468;18.040;2023-04-02T04:35:57;102455.97;;;-7.76;100.00
50380;BME280;37474;59.468;18.040;2023-04-02T04:38:31;102460.44;;;-7.54;100.00
50380;BME280;37474;59.468;18.040;2023-04-02T04:41:03;102398.72;;;-7.62;100.00
50380;BME280;37474;59.468;18.040;2023-04-02T04:43:42;102455.47;;;-7.69;100.00
50380;BME280;37474;59.468;18.040;2023-04-02T04:46:17;102464.72;;;-7.18;100.00
50380;BME280;37474;59.468;18.040;2023-04-02T04:48:52;102463.31;;;-7.12;100.00
50380;BME280;37474;59.468;18.040;2023-04-02T04:51:28;102475.41;;;-7.05;100.00
50380;BME280;37474;59.468;18.040;2023-04-02T04:54:00;102473.50;;;-6.93;100.00
50380;BME280;37474;59.468;18.040;2023-04-02T04:56:31;102481.34;;;-7.05;100.00
50380;BME280;37474;59.468;18.040;2023-04-02T04:59:02;102478.88;;;-7.03;100.00
50380;BME280;37474;59.468;18.040;2023-04-02T05:01:40;102479.75;;;-6.49;100.00
50380;BME280;37474;59.468;18.040;2023-04-02T05:04:14;102486.38;;;-6.51;100.00
50380;BME280;37474;59.468;18.040;2023-04-02T05:06:56;102485.28;;;-6.39;100.00
50380;BME280;37474;59.468;18.040;2023-04-02T05:09:29;102493.88;;;-5.58;100.00
50380;BME280;37474;59.468;18.040;2023-04-02T05:12:06;102494.53;;;-5.62;100.00
50380;BME280;37474;59.468;18.040;2023-04-02T05:14:39;102492.28;;;-5.55;100.00
50380;BME280;37474;59.468;18.040;2023-04-02T05:17:18;102492.28;;;-5.55;100.00
50380;BME280;37474;59.468;18.040;2023-04-02T05:19:51;102461.69;;;-5.82;100.00
50380;BME280;37474;59.468;18.040;2023-04-02T05:22:31;102503.31;;;-5.73;100.00
50380;BME280;37474;59.468;18.040;2023-04-02T05:25:15;102508.03;;;-5.61;100.00
50380;BME280;37474;59.468;18.040;2023-04-02T05:27:54;102513.69;;;-5.07;100.00
50380;BME280;37474;59.468;18.040;2023-04-02T05:30:43;102495.19;;;-4.85;100.00
50380;BME280;37474;59.468;18.040;2023-04-02T05:33:21;102512.06;;;-4.42;100.00
50380;BME280;37474;59.468;18.040;2023-04-02T05:35:56;102512.66;;;-4.27;100.00
50380;BME280;37474;59.468;18.040;2023-04-02T05:38:32;102509.31;;;-4.04;99.79
50380;BME280;37474;59.468;18.040;2023-04-02T05:41:04;102515.50;;;-3.95;98.90
50380;BME280;37474;59.468;18.040;2023-04-02T05:43:38;102523.66;;;-3.80;94.84
50380;BME280;37474;59.468;18.040;2023-04-02T05:46:15;102472.91;;;-4.06;98.56
50380;BME280;37474;59.468;18.040;2023-04-02T05:48:49;102534.00;;;-3.50;96.43
50380;BME280;37474;59.468;18.040;2023-04-02T05:51:27;102538.97;;;-3.29;91.24
50380;BME280;37474;59.468;18.040;2023-04-02T05:54:03;102494.03;;;-3.33;90.29
50380;BME280;37474;59.468;18.040;2023-04-02T05:56:36;102474.16;;;-3.47;92.30
50380;BME280;37474;59.468;18.040;2023-04-02T05:59:15;102545.78;;;-3.03;86.13
50380;BME280;37474;59.468;18.040;2023-04-02T06:01:47;102544.47;;;-2.92;83.84
50380;BME280;37474;59.468;18.040;2023-04-02T06:04:25;102552.25;;;-2.87;83.34
50380;BME280;37474;59.468;18.040;2023-04-02T06:07:00;102560.25;;;-2.75;81.80
50380;BME280;37474;59.468;18.040;2023-04-02T06:09:39;102570.88;;;-2.86;82.66
50380;BME280;37474;59.468;18.040;2023-04-02T06:12:21;102569.63;;;-2.72;81.52
50380;BME280;37474;59.468;18.040;2023-04-02T06:14:52;102570.66;;;-2.67;80.00
50380;BME280;37474;59.468;18.040;2023-04-02T06:17:20;102568.94;;;-2.41;77.29
50380;BME280;37474;59.468;18.040;2023-04-02T06:19:49;102574.50;;;-2.26;76.27
50380;BME280;37474;59.468;18.040;2023-04-02T06:22:23;102577.94;;;-2.24;73.70
50380;BME280;37474;59.468;18.040;2023-04-02T06:24:58;102574.59;;;-2.23;72.22
50380;BME280;37474;59.468;18.040;2023-04-02T06:27:33;102585.91;;;-2.13;72.11
50380;BME280;37474;59.468;18.040;2023-04-02T06:30:04;102580.84;;;-2.12;70.71
50380;BME280;37474;59.468;18.040;2023-04-02T06:32:35;102580.84;;;-2.12;67.50
50380;BME280;37474;59.468;18.040;2023-04-02T06:35:11;102594.28;;;-1.89;68.32
50380;BME280;37474;59.468;18.040;2023-04-02T06:37:43;102593.78;;;-1.77;67.70
50380;BME280;37474;59.468;18.040;2023-04-02T06:40:27;102594.25;;;-1.60;66.62
50380;BME280;37474;59.468;18.040;2023-04-02T06:43:00;102596.97;;;-1.54;66.96
50380;BME280;37474;59.468;18.040;2023-04-02T06:45:31;102522.50;;;-2.08;66.71
50380;BME280;37474;59.468;18.040;2023-04-02T06:48:03;102538.59;;;-1.79;67.13
50380;BME280;37474;59.468;18.040;2023-04-02T06:50:37;102605.09;;;-1.36;68.54
50380;BME280;37474;59.468;18.040;2023-04-02T06:53:18;102604.34;;;-1.33;66.71
50380;BME280;37474;59.468;18.040;2023-04-02T06:55:53;102532.16;;;-1.67;67.58
50380;BME280;37474;59.468;18.040;2023-04-02T06:58:27;102605.44;;;-1.23;69.59
50380;BME280;37474;59.468;18.040;2023-04-02T07:00:55;102607.34;;;-1.16;67.69
50380;BME280;37474;59.468;18.040;2023-04-02T07:03:24;102561.41;;;-1.51;69.08
50380;BME280;37474;59.468;18.040;2023-04-02T07:05:53;102610.19;;;-1.04;71.27
50380;BME280;37474;59.468;18.040;2023-04-02T07:08:23;102613.22;;;-0.86;67.79
50380;BME280;37474;59.468;18.040;2023-04-02T07:10:53;102622.06;;;-1.04;69.89
50380;BME280;37474;59.468;18.040;2023-04-02T07:13:22;102623.38;;;-0.87;69.53
50380;BME280;37474;59.468;18.040;2023-04-02T07:15:54;102626.38;;;-1.02;72.70
50380;BME280;37474;59.468;18.040;2023-04-02T07:18:26;102627.09;;;-0.74;70.54
50380;BME280;37474;59.468;18.040;2023-04-02T07:20:57;102623.81;;;-0.70;70.86
50380;BME280;37474;59.468;18.040;2023-04-02T07:23:26;102633.25;;;-0.66;71.02
50380;BME280;37474;59.468;18.040;2023-04-02T07:25:55;102643.47;;;-0.65;71.14
50380;BME280;37474;59.468;18.040;2023-04-02T07:28:27;102632.56;;;-0.59;70.73
50380;BME280;37474;59.468;18.040;2023-04-02T07:30:57;102596.66;;;-0.68;71.52
50380;BME280;37474;59.468;18.040;2023-04-02T07:33:29;102632.56;;;-0.24;71.17
50380;BME280;37474;59.468;18.040;2023-04-02T07:35:57;102640.72;;;-0.03;70.62
50380;BME280;37474;59.468;18.040;2023-04-02T07:38:25;102645.66;;;-0.09;70.61
50380;BME280;37474;59.468;18.040;2023-04-02T07:40:53;102645.34;;;0.15;72.68
50380;BME280;37474;59.468;18.040;2023-04-02T07:43:24;102650.91;;;0.36;70.47
50380;BME280;37474;59.468;18.040;2023-04-02T07:45:53;102653.50;;;0.38;71.51
50380;BME280;37474;59.468;18.040;2023-04-02T07:48:21;102662.28;;;0.11;73.02
50380;BME280;37474;59.468;18.040;2023-04-02T07:50:51;102662.59;;;0.26;74.12
50380;BME280;37474;59.468;18.040;2023-04-02T07:53:26;102670.72;;;0.48;76.41
50380;BME280;37474;59.468;18.040;2023-04-02T07:55:56;102667.88;;;0.73;75.96
50380;BME280;37474;59.468;18.040;2023-04-02T07:58:25;102676.59;;;0.85;75.93
50380;BME280;37474;59.468;18.040;2023-04-02T08:00:53;102668.81;;;1.22;76.14
50380;BME280;37474;59.468;18.040;2023-04-02T08:03:23;102674.91;;;0.85;78.92
50380;BME280;37474;59.468;18.040;2023-04-02T08:05:55;102671.31;;;0.77;78.18
50380;BME280;37474;59.468;18.040;2023-04-02T08:08:25;102689.28;;;0.80;78.43
50380;BME280;37474;59.468;18.040;2023-04-02T08:10:53;102680.88;;;0.86;78.79
50380;BME280;37474;59.468;18.040;2023-04-02T08:13:24;102691.00;;;0.81;81.36
50380;BME280;37474;59.468;18.040;2023-04-02T08:16:08;102692.19;;;1.00;80.99
50380;BME280;37474;59.468;18.040;2023-04-02T08:18:36;102695.59;;;0.99;81.26
50380;BME280;37474;59.468;18.040;2023-04-02T08:21:05;102691.41;;;1.01;81.58
50380;BME280;37474;59.468;18.040;2023-04-02T08:23:34;102697.78;;;1.24;80.28
50380;BME280;37474;59.468;18.040;2023-04-02T08:26:03;102702.59;;;1.09;80.72
50380;BME280;37474;59.468;18.040;2023-04-02T08:28:33;102704.97;;;1.00;81.39
50380;BME280;37474;59.468;18.040;2023-04-02T08:31:01;102703.59;;;1.16;81.12
50380;BME280;37474;59.468;18.040;2023-04-02T08:33:30;102708.06;;;1.27;80.98
50380;BME280;37474;59.468;18.040;2023-04-02T08:35:58;102716.16;;;1.05;81.77
50380;BME280;37474;59.468;18.040;2023-04-02T08:38:26;102714.16;;;1.34;79.20
50380;BME280;37474;59.468;18.040;2023-04-02T08:40:57;102714.97;;;1.33;79.95
50380;BME280;37474;59.468;18.040;2023-04-02T08:43:51;102717.13;;;1.57;79.15
50380;BME280;37474;59.468;18.040;2023-04-02T08:46:25;102719.06;;;1.70;80.47
50380;BME280;37474;59.468;18.040;2023-04-02T08:49:00;102726.75;;;1.72;78.25
50380;BME280;37474;59.468;18.040;2023-04-02T08:51:33;102728.44;;;1.71;79.27
50380;BME280;37474;59.468;18.040;2023-04-02T08:54:15;102734.66;;;1.85;78.84
50380;BME280;37474;59.468;18.040;2023-04-02T08:56:51;102732.50;;;1.60;80.43
50380;BME280;37474;59.468;18.040;2023-04-02T08:59:30;102734.47;;;1.73;79.61
50380;BME280;37474;59.468;18.040;2023-04-02T09:02:08;102739.00;;;1.91;78.87
50380;BME280;37474;59.468;18.040;2023-04-02T09:04:41;102744.47;;;2.13;77.55
50380;BME280;37474;59.468;18.040;2023-04-02T09:07:12;102755.66;;;2.19;77.73
50380;BME280;37474;59.468;18.040;2023-04-02T09:09:42;102728.13;;;2.03;79.66
50380;BME280;37474;59.468;18.040;2023-04-02T09:12:17;102763.53;;;2.31;78.02
50380;BME280;37474;59.468;18.040;2023-04-02T09:15:00;102756.41;;;2.70;76.15
50380;BME280;37474;59.468;18.040;2023-04-02T09:17:35;102764.88;;;2.64;73.34
50380;BME280;37474;59.468;18.040;2023-04-02T09:20:22;102778.44;;;2.60;73.14
50380;BME280;37474;59.468;18.040;2023-04-02T09:22:54;102767.50;;;2.70;73.13
50380;BME280;37474;59.468;18.040;2023-04-02T09:25:26;102738.31;;;2.56;70.57
50380;BME280;37474;59.468;18.040;2023-04-02T09:27:57;102768.72;;;2.95;70.88
50380;BME280;37474;59.468;18.040;2023-04-02T09:30:39;102769.06;;;3.27;69.48
50380;BME280;37474;59.468;18.040;2023-04-02T09:33:10;102772.47;;;3.23;69.47
50380;BME280;37474;59.468;18.040;2023-04-02T09:35:54;102768.06;;;3.11;68.80
50380;BME280;37474;59.468;18.040;2023-04-02T09:38:26;102776.84;;;3.33;66.62
50380;BME280;37474;59.468;18.040;2023-04-02T09:41:00;102776.41;;;2.98;68.97
50380;BME280;37474;59.468;18.040;2023-04-02T09:43:33;102772.97;;;2.95;65.25
50380;BME280;37474;59.468;18.040;2023-04-02T09:46:12;102782.16;;;3.50;65.47
50380;BME280;37474;59.468;18.040;2023-04-02T09:48:48;102788.09;;;3.48;61.54
50380;BME280;37474;59.468;18.040;2023-04-02T09:51:23;102785.47;;;3.41;60.72
50380;BME280;37474;59.468;18.040;2023-04-02T09:54:06;102780.28;;;3.37;59.92
50380;BME280;37474;59.468;18.040;2023-04-02T09:56:38;102798.47;;;3.57;58.13
50380;BME280;37474;59.468;18.040;2023-04-02T09:59:14;102792.00;;;3.95;58.07
50380;BME280;37474;59.468;18.040;2023-04-02T10:01:47;102795.69;;;4.25;55.41
50380;BME280;37474;59.468;18.040;2023-04-02T10:04:33;102813.56;;;4.13;55.23
50380;BME280;37474;59.468;18.040;2023-04-02T10:07:05;102796.47;;;4.18;53.43
50380;BME280;37474;59.468;18.040;2023-04-02T10:09:36;102803.09;;;3.93;53.62
50380;BME280;37474;59.468;18.040;2023-04-02T10:12:06;102804.81;;;3.91;54.07
50380;BME280;37474;59.468;18.040;2023-04-02T10:14:42;102817.84;;;4.14;52.37
50380;BME280;37474;59.468;18.040;2023-04-02T10:17:17;102816.84;;;4.00;52.18
50380;BME280;37474;59.468;18.040;2023-04-02T10:19:50;102818.69;;;4.16;52.01
50380;BME280;37474;59.468;18.040;2023-04-02T10:22:22;102821.25;;;4.14;50.19
50380;BME280;37474;59.468;18.040;2023-04-02T10:24:52;102823.19;;;4.41;50.78
50380;BME280;37474;59.468;18.040;2023-04-02T10:27:26;102837.41;;;4.03;50.74
50380;BME280;37474;59.468;18.040;2023-04-02T10:30:11;102845.91;;;3.98;48.24
50380;BME280;37474;59.468;18.040;2023-04-02T10:32:45;102847.47;;;3.81;49.11
50380;BME280;37474;59.468;18.040;2023-04-02T10:35:32;102858.53;;;3.77;45.45
50380;BME280;37474;59.468;18.040;2023-04-02T10:41:12;102861.94;;;3.73;43.94
50380;BME280;37474;59.468;18.040;2023-04-02T10:44:16;102841.09;;;3.46;44.04
50380;BME280;37474;59.468;18.040;2023-04-02T10:47:00;102877.41;;;3.82;42.71
50380;BME280;37474;59.468;18.040;2023-04-02T10:49:38;102877.63;;;4.02;42.99
50380;BME280;37474;59.468;18.040;2023-04-02T10:52:13;102884.59;;;4.15;44.08
50380;BME280;37474;59.468;18.040;2023-04-02T10:54:47;102887.34;;;4.38;42.36
50380;BME280;37474;59.468;18.040;2023-04-02T10:57:25;102889.03;;;4.32;41.76
50380;BME280;37474;59.468;18.040;2023-04-02T11:00:04;102891.72;;;4.45;41.26
50380;BME280;37474;59.468;18.040;2023-04-02T11:02:39;102896.00;;;4.45;44.78
50380;BME280;37474;59.468;18.040;2023-04-02T11:05:17;102892.16;;;4.03;42.84
50380;BME280;37474;59.468;18.040;2023-04-02T11:07:53;102899.06;;;4.07;43.46
50380;BME280;37474;59.468;18.040;2023-04-02T11:10:24;102905.81;;;3.99;46.14
50380;BME280;37474;59.468;18.040;2023-04-02T11:13:01;102913.31;;;3.81;44.29
50380;BME280;37474;59.468;18.040;2023-04-02T11:15:30;102905.06;;;4.11;43.42
50380;BME280;37474;59.468;18.040;2023-04-02T11:18:02;102931.25;;;4.63;44.75
50380;BME280;37474;59.468;18.040;2023-04-02T11:20:55;102922.94;;;4.94;44.11
50380;BME280;37474;59.468;18.040;2023-04-02T11:23:29;102924.66;;;4.98;43.76
50380;BME280;37474;59.468;18.040;2023-04-02T11:26:27;102934.53;;;4.46;44.29
50380;BME280;37474;59.468;18.040;2023-04-02T11:29:13;102946.66;;;4.63;44.26
50380;BME280;37474;59.468;18.040;2023-04-02T11:31:42;102950.41;;;4.09;45.85
50380;BME280;37474;59.468;18.040;2023-04-02T11:34:55;102951.31;;;4.14;46.26
50380;BME280;37474;59.468;18.040;2023-04-02T11:37:07;102949.00;;;4.37;47.62
50380;BME280;37474;59.468;18.040;2023-04-02T11:39:48;102956.00;;;4.52;44.89
50380;BME280;37474;59.468;18.040;2023-04-02T11:42:27;102965.19;;;4.28;45.15
50380;BME280;37474;59.468;18.040;2023-04-02T11:44:58;102963.53;;;4.35;45.25
50380;BME280;37474;59.468;18.040;2023-04-02T11:47:28;102968.78;;;4.47;43.61
50380;BME280;37474;59.468;18.040;2023-04-02T11:50:04;102985.53;;;4.13;46.09
50380;BME280;37474;59.468;18.040;2023-04-02T11:52:50;102986.53;;;4.27;45.80
50380;BME280;37474;59.468;18.040;2023-04-02T11:55:26;102991.84;;;3.71;46.22
50380;BME280;37474;59.468;18.040;2023-04-02T11:58:20;103000.78;;;3.37;44.99
50380;BME280;37474;59.468;18.040;2023-04-02T12:01:16;102994.31;;;3.62;45.69
50380;BME280;37474;59.468;18.040;2023-04-02T12:06:54;102994.13;;;4.16;46.18
50380;BME280;37474;59.468;18.040;2023-04-02T12:09:27;102988.47;;;4.45;44.94
50380;BME280;37474;59.468;18.040;2023-04-02T12:11:58;103009.63;;;4.24;45.59
50380;BME280;37474;59.468;18.040;2023-04-02T12:14:44;103006.94;;;3.47;44.50
50380;BME280;37474;59.468;18.040;2023-04-02T12:17:20;103016.00;;;3.85;44.23
50380;BME280;37474;59.468;18.040;2023-04-02T12:19:52;103017.84;;;3.95;43.43
50380;BME280;37474;59.468;18.040;2023-04-02T12:22:24;103007.94;;;4.26;43.30
50380;BME280;37474;59.468;18.040;2023-04-02T12:24:58;103007.91;;;4.23;43.01
50380;BME280;37474;59.468;18.040;2023-04-02T12:27:28;103010.94;;;3.91;43.09
50380;BME280;37474;59.468;18.040;2023-04-02T12:30:11;103012.59;;;3.85;43.77
50380;BME280;37474;59.468;18.040;2023-04-02T12:32:41;103014.03;;;3.66;44.15
50380;BME280;37474;59.468;18.040;2023-04-02T12:35:26;103015.72;;;3.64;46.07
50380;BME280;37474;59.468;18.040;2023-04-02T12:37:56;103010.09;;;3.92;44.98
50380;BME280;37474;59.468;18.040;2023-04-02T12:40:27;102954.72;;;3.41;45.13
50380;BME280;37474;59.468;18.040;2023-04-02T12:42:56;103021.84;;;3.75;46.88
50380;BME280;37474;59.468;18.040;2023-04-02T12:45:27;103024.56;;;3.87;46.16
50380;BME280;37474;59.468;18.040;2023-04-02T12:47:59;103033.41;;;4.11;45.93
50380;BME280;37474;59.468;18.040;2023-04-02T12:50:28;103021.78;;;3.70;44.24
50380;BME280;37474;59.468;18.040;2023-04-02T12:52:56;103037.41;;;3.86;45.39
50380;BME280;37474;59.468;18.040;2023-04-02T12:55:29;103030.38;;;4.42;45.18
50380;BME280;37474;59.468;18.040;2023-04-02T12:58:00;103042.31;;;3.70;46.66
50380;BME280;37474;59.468;18.040;2023-04-02T13:00:32;103041.22;;;3.53;44.89
50380;BME280;37474;59.468;18.040;2023-04-02T13:03:17;103050.53;;;4.09;45.28
50380;BME280;37474;59.468;18.040;2023-04-02T13:05:52;103024.56;;;3.87;44.57
50380;BME280;37474;59.468;18.040;2023-04-02T13:08:23;103063.50;;;3.57;44.10
50380;BME280;37474;59.468;18.040;2023-04-02T13:10:58;102998.19;;;3.34;43.27
50380;BME280;37474;59.468;18.040;2023-04-02T13:13:32;103062.66;;;4.20;42.56
50380;BME280;37474;59.468;18.040;2023-04-02T13:16:05;103053.50;;;3.74;44.73
50380;BME280;37474;59.468;18.040;2023-04-02T13:18:36;103049.84;;;3.58;43.42
50380;BME280;37474;59.468;18.040;2023-04-02T13:21:22;103046.03;;;3.94;45.33
50380;BME280;37474;59.468;18.040;2023-04-02T13:23:54;103068.91;;;3.21;42.61
50380;BME280;37474;59.468;18.040;2023-04-02T13:26:26;103061.66;;;3.49;43.76